Time;durP1;ratioP1;P1;durP2;ratioP2;P2;SDS_P1;SDS_P2;PMS_P1;PMS_P2;Temp;Humidity;BMP_temperature;BMP_pressure;BME280_temperature;BME280_humidity;BME280_pressure;Samples;Min_cycle;Max_cycle;Signal;HPM_P1;HPM_P2
2022/09/20 00:01:19;;;;;;;9.82;2.63;;;10.20;99.90;;;;;;5021521;28;20037;-83
2022/09/20 00:03:47;;;;;;;7.50;2.90;;;10.20;99.90;;;;;;5043499;28;20009;-80
2022/09/20 00:06:15;;;;;;;12.32;3.65;;;10.20;99.90;;;;;;5021618;28;20030;-81
2022/09/20 00:08:41;;;;;;;8.10;3.35;;;10.10;99.90;;;;;;5021057;28;20068;-81
2022/09/20 00:11:17;;;;;;;8.73;3.45;;;11.20;99.90;;;;;;5024175;28;20025;-78
2022/09/20 00:13:44;;;;;;;7.30;3.40;;;10.00;99.90;;;;;;5041674;28;20061;-80
2022/09/20 00:16:23;;;;;;;6.72;3.05;;;10.00;99.90;;;;;;5029152;28;20048;-83
2022/09/20 00:18:50;;;;;;;6.63;3.35;;;10.00;99.90;;;;;;5027367;28;20167;-83
2022/09/20 00:21:17;;;;;;;7.90;3.17;;;10.00;99.90;;;;;;5026125;28;20032;-84
2022/09/20 00:23:43;;;;;;;7.75;3.10;;;11.90;99.90;;;;;;5028433;28;20714;-80
2022/09/20 00:26:09;;;;;;;9.50;3.38;;;;;;;;;;5024556;28;20030;-79
2022/09/20 00:28:35;;;;;;;8.27;3.90;;;9.80;99.90;;;;;;5037829;28;20094;-81
2022/09/20 00:31:01;;;;;;;10.05;3.50;;;9.80;99.90;;;;;;5028369;28;20029;-80
2022/09/20 00:35:06;;;;;;;6.60;3.38;;;;;;;;;;5024339;28;20754;-83
2022/09/20 00:36:13;;;;;;;11.75;3.42;;;9.80;99.90;;;;;;5034052;28;20040;-84
2022/09/20 00:38:38;;;;;;;7.05;2.97;;;9.80;99.90;;;;;;5015020;28;20014;-83
2022/09/20 00:41:05;;;;;;;8.38;3.00;;;;;;;;;;5022820;28;20025;-81
2022/09/20 00:43:39;;;;;;;9.00;2.95;;;9.80;99.90;;;;;;5019262;28;20065;-82
2022/09/20 00:46:13;;;;;;;6.03;3.33;;;9.80;99.90;;;;;;5018318;28;20030;-85
2022/09/20 00:48:38;;;;;;;9.30;3.15;;;12.40;99.90;;;;;;5016077;28;20721;-83
2022/09/20 00:51:10;;;;;;;7.95;3.38;;;9.80;99.90;;;;;;5016891;28;20029;-82
2022/09/20 00:53:39;;;;;;;9.85;3.30;;;9.80;99.90;;;;;;5023205;28;20036;-83
2022/09/20 00:56:27;;;;;;;8.95;2.83;;;9.70;99.90;;;;;;5020488;28;20080;-83
2022/09/20 00:59:11;;;;;;;5.28;2.40;;;9.60;99.90;;;;;;5030077;28;20029;-84
2022/09/20 01:01:36;;;;;;;8.63;3.28;;;9.60;99.90;;;;;;5027044;28;20052;-82
2022/09/20 01:04:03;;;;;;;11.43;3.20;;;9.50;99.90;;;;;;5027872;28;20033;-81
2022/09/20 01:06:30;;;;;;;7.35;3.13;;;9.50;99.90;;;;;;5013530;28;20041;-83
2022/09/20 01:09:01;;;;;;;6.80;2.45;;;9.80;99.90;;;;;;5019761;28;20034;-83
2022/09/20 01:11:29;;;;;;;12.32;3.08;;;9.40;99.90;;;;;;5023614;28;20022;-81
2022/09/20 01:13:55;;;;;;;9.75;2.80;;;9.40;99.90;;;;;;5024763;28;20030;-81
2022/09/20 01:16:22;;;;;;;9.65;3.42;;;9.40;99.90;;;;;;5026496;28;20106;-83
2022/09/20 01:18:49;;;;;;;6.82;3.03;;;10.90;99.90;;;;;;5043152;28;20036;-81
2022/09/20 01:21:16;;;;;;;7.78;2.90;;;9.30;99.90;;;;;;5029482;28;20021;-83
2022/09/20 01:24:12;;;;;;;7.82;3.00;;;9.40;99.90;;;;;;5022398;28;20029;-81
2022/09/20 01:27:02;;;;;;;8.85;2.80;;;9.40;99.90;;;;;;5027827;28;20030;-82
2022/09/20 01:30:00;;;;;;;9.82;2.92;;;9.40;99.90;;;;;;5029513;28;20032;-82
2022/09/20 01:32:38;;;;;;;7.10;2.90;;;9.40;99.90;;;;;;5036480;28;20060;-82
2022/09/20 01:35:06;;;;;;;7.25;2.75;;;9.30;99.90;;;;;;5028003;28;20014;-85
2022/09/20 01:37:55;;;;;;;5.88;2.92;;;9.30;99.90;;;;;;5031243;28;20040;-85
2022/09/20 01:40:43;;;;;;;8.27;2.85;;;9.30;99.90;;;;;;5022184;28;20084;-82
2022/09/20 01:43:40;;;;;;;8.75;3.30;;;9.30;99.90;;;;;;5041424;28;20520;-84
2022/09/20 01:46:32;;;;;;;6.88;2.80;;;9.30;99.90;;;;;;5023478;28;20026;-81
2022/09/20 01:49:28;;;;;;;8.30;2.97;;;9.30;99.90;;;;;;5010351;28;20053;-84
2022/09/20 01:52:12;;;;;;;6.22;2.90;;;9.30;99.90;;;;;;5023278;28;20037;-81
2022/09/20 01:55:19;;;;;;;9.93;2.75;;;9.20;99.90;;;;;;5026676;28;20032;-81
2022/09/20 01:58:12;;;;;;;10.10;3.03;;;9.20;99.90;;;;;;4915998;29;20060;-83
2022/09/20 02:00:48;;;;;;;5.88;3.30;;;9.20;99.90;;;;;;4938072;29;20429;-86
2022/09/20 02:03:45;;;;;;;8.13;3.00;;;9.10;99.90;;;;;;4996479;28;20038;-84
2022/09/20 02:06:10;;;;;;;9.70;2.97;;;9.10;99.90;;;;;;5032957;28;20023;-83
2022/09/20 02:08:51;;;;;;;6.95;3.20;;;9.10;99.90;;;;;;5025173;28;20088;-86
2022/09/20 02:11:41;;;;;;;7.60;2.78;;;9.10;99.90;;;;;;5021152;28;20038;-82
2022/09/20 02:14:31;;;;;;;9.60;3.53;;;9.10;99.90;;;;;;5013089;28;20023;-81
2022/09/20 02:17:11;;;;;;;8.55;2.78;;;9.00;99.90;;;;;;5005603;28;20021;-84
2022/09/20 02:19:59;;;;;;;4.90;2.60;;;9.00;99.90;;;;;;5007488;28;20034;-79
2022/09/20 02:22:40;;;;;;;7.32;2.53;;;9.00;99.90;;;;;;5012995;28;20029;-84
2022/09/20 02:25:37;;;;;;;6.05;2.80;;;9.10;99.90;;;;;;5007268;28;20112;-80
2022/09/20 02:28:11;;;;;;;5.95;2.58;;;9.00;99.90;;;;;;5010947;28;20029;-80
2022/09/20 02:30:48;;;;;;;5.65;2.58;;;9.00;99.90;;;;;;5006889;28;20482;-81
2022/09/20 02:33:36;;;;;;;6.90;3.50;;;8.90;99.90;;;;;;5005416;28;20124;-78
2022/09/20 02:36:36;;;;;;;9.25;3.42;;;8.90;99.90;;;;;;5014872;28;20029;-86
2022/09/20 02:39:07;;;;;;;9.68;3.10;;;8.80;99.90;;;;;;5016405;28;20433;-82
2022/09/20 02:41:50;;;;;;;7.43;3.30;;;8.90;99.90;;;;;;5072073;23;20074;-81
2022/09/20 02:44:53;;;;;;;7.50;3.03;;;8.90;99.90;;;;;;5050108;28;20116;-83
2022/09/20 02:47:30;;;;;;;6.47;3.05;;;8.90;99.90;;;;;;5069332;28;20024;-84
2022/09/20 02:50:28;;;;;;;6.85;3.20;;;8.80;99.90;;;;;;5049117;28;20025;-81
2022/09/20 02:53:10;;;;;;;8.05;3.20;;;8.90;99.90;;;;;;5034535;28;20017;-83
2022/09/20 02:56:33;;;;;;;10.10;3.17;;;8.80;99.90;;;;;;5052962;28;20025;-83
2022/09/20 02:59:24;;;;;;;7.47;3.20;;;8.90;99.90;;;;;;4946485;28;20053;-81
2022/09/20 03:02:07;;;;;;;10.63;3.17;;;8.90;99.90;;;;;;4944791;28;20193;-80
2022/09/20 03:05:06;;;;;;;9.00;3.05;;;9.00;99.90;;;;;;5043332;28;20124;-86
2022/09/20 03:07:50;;;;;;;8.73;3.00;;;9.00;99.90;;;;;;5060234;28;20029;-82
2022/09/20 03:10:27;;;;;;;6.38;3.20;;;9.00;99.90;;;;;;5040366;28;20056;-80
2022/09/20 03:13:12;;;;;;;7.63;2.90;;;9.10;99.90;;;;;;5024454;28;20078;-84
2022/09/20 03:16:08;;;;;;;7.13;2.70;;;9.10;99.90;;;;;;5055114;28;20528;-83
2022/09/20 03:18:45;;;;;;;7.63;3.00;;;9.20;99.90;;;;;;5037552;28;20037;-84
2022/09/20 03:21:25;;;;;;;7.43;2.90;;;9.20;99.90;;;;;;5037455;28;20020;-84
2022/09/20 03:24:08;;;;;;;13.25;3.60;;;9.20;99.90;;;;;;5039625;28;20085;-81
2022/09/20 03:27:16;;;;;;;6.88;3.03;;;9.30;99.90;;;;;;5037801;28;20039;-83
2022/09/20 03:30:00;;;;;;;7.28;2.67;;;9.30;99.90;;;;;;5029468;28;20048;-81
2022/09/20 03:32:53;;;;;;;5.50;3.08;;;9.30;99.90;;;;;;5049128;28;20104;-86
2022/09/20 03:35:37;;;;;;;10.40;3.50;;;9.30;99.90;;;;;;5056866;28;20021;-81
2022/09/20 03:38:21;;;;;;;10.18;3.00;;;9.30;99.90;;;;;;5039356;28;20021;-83
2022/09/20 03:40:58;;;;;;;7.70;3.22;;;9.30;99.90;;;;;;5039356;28;20028;-83
2022/09/20 03:43:54;;;;;;;6.85;2.90;;;9.40;99.90;;;;;;5038083;28;20082;-82
2022/09/20 03:46:41;;;;;;;9.65;2.67;;;9.30;99.90;;;;;;5037393;28;20025;-81
2022/09/20 03:49:39;;;;;;;6.38;2.95;;;9.30;99.90;;;;;;5040949;28;20043;-84
2022/09/20 03:52:34;;;;;;;8.73;3.40;;;9.30;99.90;;;;;;5059788;28;20033;-83
2022/09/20 03:55:14;;;;;;;7.70;3.20;;;9.30;99.90;;;;;;5043000;28;20060;-84
2022/09/20 03:57:55;;;;;;;10.77;3.17;;;9.40;99.90;;;;;;5052651;28;20180;-81
2022/09/20 04:00:42;;;;;;;10.50;3.30;;;9.40;99.90;;;;;;5045880;28;20017;-84
2022/09/20 04:03:26;;;;;;;6.43;2.92;;;9.40;99.90;;;;;;5047063;28;20044;-85
2022/09/20 04:06:13;;;;;;;10.07;3.33;;;9.50;99.90;;;;;;5068685;28;20029;-84
2022/09/20 04:08:57;;;;;;;13.13;3.28;;;9.40;99.90;;;;;;5047635;28;20032;-82
2022/09/20 04:11:27;;;;;;;8.40;3.20;;;9.50;99.90;;;;;;5062740;28;20017;-85
2022/09/20 04:14:22;;;;;;;8.23;3.00;;;9.50;99.90;;;;;;5053963;28;20045;-84
2022/09/20 04:16:52;;;;;;;5.85;3.08;;;9.60;99.90;;;;;;5035195;28;20046;-87
2022/09/20 04:19:40;;;;;;;8.73;3.53;;;9.60;99.90;;;;;;5049897;28;20014;-86
2022/09/20 04:22:07;;;;;;;5.22;2.92;;;9.60;99.90;;;;;;5076235;28;20009;-84
2022/09/20 04:24:36;;;;;;;5.80;3.03;;;9.60;99.90;;;;;;5054135;28;20037;-86
2022/09/20 04:27:09;;;;;;;7.85;3.20;;;9.60;99.90;;;;;;5054873;28;20049;-83
2022/09/20 04:30:07;;;;;;;7.35;2.90;;;9.60;99.90;;;;;;5047931;28;20017;-83
2022/09/20 04:32:42;;;;;;;9.77;3.00;;;9.60;99.90;;;;;;5011074;28;20108;-81
2022/09/20 04:38:28;;;;;;;7.45;2.95;;;9.60;99.90;;;;;;5062290;28;20115;-83
2022/09/20 04:41:28;;;;;;;9.68;3.10;;;9.60;99.90;;;;;;5046002;28;20075;-86
2022/09/20 04:44:21;;;;;;;9.27;3.10;;;9.60;99.90;;;;;;5064915;28;20025;-84
2022/09/20 04:47:17;;;;;;;7.60;3.17;;;9.60;99.90;;;;;;5044030;28;20033;-84
2022/09/20 04:50:21;;;;;;;7.70;3.10;;;9.70;99.90;;;;;;5053720;28;20143;-83
2022/09/20 04:53:03;;;;;;;8.70;3.30;;;9.70;99.90;;;;;;5046420;28;20084;-83
2022/09/20 04:56:08;;;;;;;11.13;4.50;;;9.70;99.90;;;;;;5058402;28;20032;-85
2022/09/20 04:58:53;;;;;;;7.47;2.97;;;9.80;99.90;;;;;;5067854;28;20409;-81
2022/09/20 05:01:49;;;;;;;7.03;2.97;;;9.80;99.90;;;;;;5049554;28;20025;-83
2022/09/20 05:04:30;;;;;;;7.07;3.10;;;9.80;99.90;;;;;;5036846;28;20017;-80
2022/09/20 05:07:11;;;;;;;12.98;3.83;;;9.90;99.90;;;;;;5043448;28;21063;-84
2022/09/20 05:09:55;;;;;;;7.15;3.20;;;9.90;99.90;;;;;;5028378;28;20045;-80
2022/09/20 05:12:41;;;;;;;6.25;2.92;;;9.90;99.90;;;;;;5040709;28;20029;-81
2022/09/20 05:15:37;;;;;;;12.18;3.30;;;9.90;99.90;;;;;;5056681;28;20055;-84
2022/09/20 05:18:34;;;;;;;11.30;3.80;;;9.90;99.90;;;;;;5030461;28;20037;-81
2022/09/20 05:21:22;;;;;;;11.50;3.40;;;9.90;99.90;;;;;;5041477;28;20029;-81
2022/09/20 05:24:03;;;;;;;8.50;3.40;;;9.90;99.90;;;;;;5056278;28;20025;-86
2022/09/20 05:26:54;;;;;;;10.27;3.70;;;9.90;99.90;;;;;;5051983;28;20029;-84
2022/09/20 05:29:48;;;;;;;11.77;4.22;;;9.90;99.90;;;;;;5036646;28;20025;-84
2022/09/20 05:32:22;;;;;;;11.63;3.88;;;9.90;99.90;;;;;;5058719;28;20116;-85
2022/09/20 05:35:11;;;;;;;9.90;3.70;;;9.90;99.90;;;;;;5039169;28;20465;-80
2022/09/20 05:37:45;;;;;;;10.63;3.55;;;9.90;99.90;;;;;;5034368;28;20029;-84
2022/09/20 05:40:22;;;;;;;11.38;3.28;;;9.90;99.90;;;;;;5042373;28;20043;-81
2022/09/20 05:43:11;;;;;;;13.30;3.65;;;9.90;99.90;;;;;;5034470;28;20056;-83
2022/09/20 05:45:52;;;;;;;12.13;3.73;;;9.90;99.90;;;;;;5043549;28;20478;-82
2022/09/20 05:48:36;;;;;;;9.73;3.38;;;9.90;99.90;;;;;;5059506;28;20025;-82
2022/09/20 05:51:20;;;;;;;9.75;3.45;;;9.90;99.90;;;;;;5052066;28;20025;-82
2022/09/20 05:53:58;;;;;;;7.90;3.42;;;10.00;99.90;;;;;;5038599;28;20044;-83
2022/09/20 05:56:41;;;;;;;10.57;3.80;;;9.90;99.90;;;;;;5045136;28;20029;-81
2022/09/20 05:59:29;;;;;;;10.85;3.53;;;10.00;99.90;;;;;;5036614;28;20036;-84
2022/09/20 06:02:06;;;;;;;10.25;4.00;;;10.00;99.90;;;;;;5039774;28;20253;-79
2022/09/20 06:04:39;;;;;;;10.52;3.30;;;10.10;99.90;;;;;;5053354;28;20449;-80
2022/09/20 06:07:21;;;;;;;11.30;3.72;;;10.10;99.90;;;;;;5042506;28;20033;-83
2022/09/20 06:10:09;;;;;;;9.70;3.53;;;10.10;99.90;;;;;;5068835;28;20033;-82
2022/09/20 06:12:59;;;;;;;6.45;3.08;;;10.10;99.90;;;;;;5046159;28;20032;-81
2022/09/20 06:15:56;;;;;;;9.30;3.38;;;10.20;99.90;;;;;;5045372;28;20025;-83
2022/09/20 06:18:46;;;;;;;10.68;4.03;;;10.20;99.90;;;;;;5040896;28;20025;-81
2022/09/20 06:21:47;;;;;;;10.88;3.47;;;10.20;99.90;;;;;;5042691;28;20024;-81
2022/09/20 06:24:34;;;;;;;10.15;3.42;;;10.30;99.90;;;;;;5033437;28;20021;-82
2022/09/20 06:27:17;;;;;;;9.93;4.40;;;10.50;99.90;;;;;;5035144;28;20048;-81
2022/09/20 06:29:50;;;;;;;14.23;4.60;;;10.40;99.90;;;;;;5031566;28;20025;-83
2022/09/20 06:32:16;;;;;;;10.05;4.63;;;11.60;99.90;;;;;;5041246;28;20029;-81
2022/09/20 06:34:42;;;;;;;9.73;4.55;;;10.50;99.90;;;;;;5055959;28;20031;-82
2022/09/20 06:43:13;;;;;;;13.43;5.00;;;10.70;99.90;;;;;;5056679;28;20041;-84
2022/09/20 06:45:41;;;;;;;12.43;4.72;;;10.90;99.90;;;;;;5024190;28;20028;-80
2022/09/20 06:48:11;;;;;;;9.38;3.92;;;10.90;99.90;;;;;;5038260;28;20072;-83
2022/09/20 06:50:44;;;;;;;10.63;4.70;;;11.00;99.90;;;;;;5038228;28;20029;-82
2022/09/20 06:53:16;;;;;;;9.68;3.88;;;11.10;99.90;;;;;;5053312;28;20033;-84
2022/09/20 06:55:43;;;;;;;11.50;4.20;;;11.10;99.90;;;;;;5060786;28;20025;-82
2022/09/20 06:58:10;;;;;;;14.77;4.63;;;10.90;99.90;;;;;;5039125;28;20021;-81
2022/09/20 07:00:36;;;;;;;16.92;5.07;;;9.80;99.90;;;;;;5033816;28;20599;-82
2022/09/20 07:03:01;;;;;;;10.65;4.70;;;11.30;99.90;;;;;;5057663;28;20039;-81
2022/09/20 07:05:28;;;;;;;16.50;4.78;;;11.20;99.90;;;;;;5038791;28;20013;-83
2022/09/20 07:07:58;;;;;;;14.70;4.97;;;11.20;99.90;;;;;;5034717;28;20063;-83
2022/09/20 07:10:26;;;;;;;12.57;4.88;;;11.70;99.90;;;;;;5036288;28;20024;-84
2022/09/20 07:12:59;;;;;;;10.65;4.43;;;13.20;99.90;;;;;;5035423;28;20053;-84
2022/09/20 07:15:25;;;;;;;9.32;3.90;;;11.40;99.90;;;;;;5064402;28;20028;-82
2022/09/20 07:17:51;;;;;;;10.55;4.60;;;11.70;99.90;;;;;;5036239;28;20040;-83
2022/09/20 07:20:18;;;;;;;11.95;4.57;;;14.00;99.90;;;;;;5047595;28;20024;-83
2022/09/20 07:22:44;;;;;;;15.57;4.90;;;13.90;99.90;;;;;;5054824;28;20550;-83
2022/09/20 07:25:13;;;;;;;13.30;5.00;;;14.00;99.90;;;;;;5057005;28;20056;-81
2022/09/20 07:27:39;;;;;;;15.20;5.18;;;11.60;99.90;;;;;;5043930;28;20127;-85
2022/09/20 07:30:06;;;;;;;12.27;4.45;;;13.30;99.90;;;;;;5045874;28;20032;-81
2022/09/20 07:32:31;;;;;;;10.90;4.70;;;11.70;99.90;;;;;;5042170;28;20033;-83
2022/09/20 07:34:57;;;;;;;11.90;5.28;;;12.60;99.90;;;;;;5057195;28;20075;-82
2022/09/20 07:37:23;;;;;;;8.98;4.70;;;;;;;;;;5060129;28;20033;-81
2022/09/20 07:39:48;;;;;;;14.43;5.20;;;12.00;99.90;;;;;;5045086;28;20123;-87
2022/09/20 07:42:15;;;;;;;11.05;4.95;;;12.00;99.90;;;;;;5038868;28;20049;-87
2022/09/20 07:44:42;;;;;;;15.48;4.95;;;15.10;99.90;;;;;;5030377;28;20025;-81
2022/09/20 07:47:13;;;;;;;18.27;7.85;;;15.00;99.90;;;;;;5055203;28;20041;-84
2022/09/20 07:49:39;;;;;;;16.52;5.53;;;10.80;99.90;;;;;;5055054;28;20040;-84
2022/09/20 07:52:05;;;;;;;11.35;4.85;;;;;;;;;;5050412;28;20029;-82
2022/09/20 07:54:30;;;;;;;14.65;4.80;;;12.00;99.90;;;;;;5035458;28;20048;-81
2022/09/20 07:56:59;;;;;;;9.70;4.50;;;14.10;99.90;;;;;;5037054;28;20036;-84
2022/09/20 07:59:24;;;;;;;11.88;4.70;;;12.30;99.90;;;;;;5039303;28;20030;-83
2022/09/20 08:01:50;;;;;;;19.92;5.82;;;14.20;99.90;;;;;;5053736;28;20339;-82
2022/09/20 08:04:16;;;;;;;15.18;5.10;;;;;;;;;;5054748;28;20385;-87
2022/09/20 08:06:43;;;;;;;38.72;16.40;;;12.40;99.90;;;;;;5033663;28;20382;-86
2022/09/20 08:09:10;;;;;;;14.88;7.38;;;12.50;99.90;;;;;;5037424;28;20114;-80
2022/09/20 08:11:37;;;;;;;14.38;4.78;;;12.80;99.90;;;;;;5056262;28;20082;-83
2022/09/20 08:14:03;;;;;;;13.43;4.68;;;13.10;99.90;;;;;;5039353;28;20027;-80
2022/09/20 08:16:30;;;;;;;15.10;5.07;;;12.50;99.90;;;;;;5061752;28;20100;-83
2022/09/20 08:19:01;;;;;;;12.05;5.20;;;15.00;99.90;;;;;;5061017;28;20058;-82
2022/09/20 08:21:30;;;;;;;;;;;12.70;99.90;;;;;;5040371;28;20092;-87
2022/09/20 08:23:56;;;;;;;13.75;4.90;;;12.70;99.90;;;;;;5058912;28;19940;-82
2022/09/20 08:26:23;;;;;;;9.10;4.22;;;15.40;99.90;;;;;;5045624;28;20041;-86
2022/09/20 08:28:57;;;;;;;14.18;4.57;;;12.90;99.90;;;;;;5045520;28;20024;-82
2022/09/20 08:31:26;;;;;;;8.55;4.53;;;13.40;99.90;;;;;;5045820;28;20025;-83
2022/09/20 08:33:53;;;;;;;14.25;5.47;;;13.00;99.90;;;;;;5044849;28;20040;-83
2022/09/20 08:36:21;;;;;;;15.00;5.18;;;13.00;99.90;;;;;;5044865;28;20033;-81
2022/09/20 08:38:47;;;;;;;12.05;4.97;;;14.60;99.90;;;;;;5066941;28;20048;-82
2022/09/20 08:41:22;;;;;;;11.85;4.82;;;14.80;99.90;;;;;;5049982;28;20029;-78
2022/09/20 08:43:55;;;;;;;15.43;5.95;;;13.20;99.90;;;;;;5045078;28;20032;-85
2022/09/20 08:46:28;;;;;;;12.13;4.45;;;14.20;99.90;;;;;;5042848;28;20737;-80
2022/09/20 08:49:15;;;;;;;11.43;4.57;;;13.60;99.90;;;;;;5052468;28;20040;-81
2022/09/20 08:51:48;;;;;;;12.90;5.00;;;13.70;99.90;;;;;;5051547;28;20502;-82
2022/09/20 08:54:15;;;;;;;12.00;4.90;;;;;;;;;;5055232;28;20124;-81
2022/09/20 08:56:45;;;;;;;14.43;4.93;;;13.90;99.90;;;;;;5044286;28;20055;-82
2022/09/20 08:59:17;;;;;;;11.30;4.07;;;14.20;99.90;;;;;;5049062;28;20040;-81
2022/09/20 09:01:44;;;;;;;10.27;3.63;;;;;;;;;;5058467;28;20033;-84
2022/09/20 09:04:18;;;;;;;12.25;3.60;;;14.30;99.90;;;;;;5080486;28;20107;-86
2022/09/20 09:06:48;;;;;;;11.35;3.33;;;;;;;;;;5060236;28;20028;-87
2022/09/20 09:09:26;;;;;;;8.77;3.75;;;14.60;99.90;;;;;;5054064;28;20100;-85
2022/09/20 09:11:53;;;;;;;11.73;3.45;;;;;;;;;;5070680;28;20045;-82
2022/09/20 09:14:49;;;;;;;8.23;2.88;;;14.80;99.90;;;;;;5073171;28;20022;-84
2022/09/20 09:17:22;;;;;;;8.88;3.25;;;14.90;99.90;;;;;;5060357;28;20028;-85
2022/09/20 09:20:05;;;;;;;7.30;2.47;;;15.00;99.90;;;;;;5082746;28;20021;-86
2022/09/20 09:22:36;;;;;;;12.85;2.75;;;;;;;;;;5060174;28;20032;-83
2022/09/20 09:25:15;;;;;;;6.20;2.10;;;;;;;;;;5075369;28;20039;-83
2022/09/20 09:27:59;;;;;;;5.33;2.00;;;;;;;;;;5059771;28;20025;-83
2022/09/20 09:30:42;;;;;;;7.93;1.90;;;15.50;99.90;;;;;;5067874;28;20264;-83
2022/09/20 09:33:14;;;;;;;7.53;1.98;;;;;;;;;;5044991;28;20067;-82
2022/09/20 09:35:41;;;;;;;5.30;1.95;;;;;;;;;;5050433;28;20029;-81
2022/09/20 09:38:24;;;;;;;5.50;2.00;;;;;;;;;;5055324;28;20033;-84
2022/09/20 09:40:51;;;;;;;5.43;1.58;;;;;;;;;;5049977;28;20029;-83
2022/09/20 09:43:25;;;;;;;4.85;1.60;;;15.90;99.90;;;;;;5055544;28;20016;-84
2022/09/20 09:45:52;;;;;;;4.78;1.48;;;;;;;;;;5050485;28;20029;-81
2022/09/20 09:48:30;;;;;;;5.68;1.30;;;;;;;;;;5068899;28;20021;-82
2022/09/20 09:51:14;;;;;;;4.85;1.35;;;;;;;;;;5077651;28;20032;-82
2022/09/20 09:53:40;;;;;;;7.65;1.45;;;;;;;;;;5049307;28;20029;-81
2022/09/20 09:56:26;;;;;;;4.65;1.20;;;16.30;99.90;;;;;;5074623;28;20454;-83
2022/09/20 09:58:57;;;;;;;12.38;1.50;;;;;;;;;;5070621;28;20024;-82
2022/09/20 10:01:48;;;;;;;8.00;1.45;;;16.20;99.90;;;;;;5075602;28;20070;-82
2022/09/20 10:04:31;;;;;;;5.95;1.63;;;16.20;99.90;;;;;;5060105;28;20029;-82
2022/09/20 10:07:02;;;;;;;4.50;1.73;;;16.10;99.90;;;;;;5051140;28;20029;-83
2022/09/20 10:09:54;;;;;;;5.97;1.35;;;15.90;99.90;;;;;;5056598;28;20086;-83
2022/09/20 10:12:57;;;;;;;4.30;1.20;;;15.90;99.90;;;;;;5056605;28;20025;-82
2022/09/20 10:15:42;;;;;;;5.43;1.20;;;15.90;99.90;;;;;;5029163;28;20080;-82
2022/09/20 10:18:41;;;;;;;4.65;1.73;;;15.80;99.90;;;;;;5050110;28;20029;-81
2022/09/20 10:21:30;;;;;;;5.40;1.52;;;15.80;99.90;;;;;;5058884;28;20012;-80
2022/09/20 10:24:41;;;;;;;4.78;1.77;;;15.80;99.90;;;;;;5055885;28;20425;-81
2022/09/20 10:27:09;;;;;;;9.40;1.80;;;16.00;99.90;;;;;;5044358;28;20098;-80
2022/09/20 10:29:49;;;;;;;4.75;1.30;;;16.00;99.90;;;;;;5048770;28;20037;-82
2022/09/20 10:32:48;;;;;;;8.63;1.27;;;16.10;99.90;;;;;;5064116;28;20235;-81
2022/09/20 10:35:25;;;;;;;5.72;1.45;;;16.20;99.90;;;;;;5050378;28;20600;-81
2022/09/20 10:38:00;;;;;;;3.28;1.50;;;16.40;99.90;;;;;;5070046;28;20084;-81
2022/09/20 10:44:00;;;;;;;7.10;1.30;;;16.70;99.90;;;;;;5062081;28;20248;-82
2022/09/20 10:46:31;;;;;;;5.13;1.75;;;16.60;99.90;;;;;;5029302;28;20041;-80
2022/09/20 10:49:36;;;;;;;3.97;1.08;;;16.70;99.90;;;;;;5041921;28;20033;-82
2022/09/20 10:52:26;;;;;;;7.13;1.42;;;16.70;99.90;;;;;;5065549;28;20506;-81
2022/09/20 10:55:02;;;;;;;;;;;16.70;99.90;;;;;;5066561;28;20037;-82
2022/09/20 10:57:55;;;;;;;4.18;1.30;;;16.70;99.90;;;;;;5048331;28;20377;-81
2022/09/20 11:00:31;;;;;;;5.38;1.30;;;16.60;99.90;;;;;;5067808;28;20024;-83
2022/09/20 11:03:16;;;;;;;3.63;1.20;;;16.50;99.90;;;;;;5047656;28;20036;-81
2022/09/20 11:05:55;;;;;;;7.78;1.40;;;;;;;;;;5048556;28;20051;-81
2022/09/20 11:08:31;;;;;;;4.50;1.40;;;16.50;99.90;;;;;;5046489;28;20039;-81
2022/09/20 11:11:21;;;;;;;4.97;1.40;;;16.50;99.90;;;;;;5066790;28;20647;-81
2022/09/20 11:14:18;;;;;;;4.22;1.20;;;16.70;99.90;;;;;;5048525;28;20111;-81
2022/09/20 11:16:49;;;;;;;5.72;1.30;;;17.20;99.90;;;;;;5050000;28;20037;-83
2022/09/20 11:19:34;;;;;;;5.75;1.42;;;17.20;99.90;;;;;;5047567;28;20085;-80
2022/09/20 11:22:08;;;;;;;6.28;1.45;;;17.20;99.90;;;;;;5064493;28;20515;-82
2022/09/20 11:24:41;;;;;;;4.25;1.20;;;17.30;99.90;;;;;;5046914;28;20086;-83
2022/09/20 11:27:19;;;;;;;4.57;1.35;;;17.20;99.90;;;;;;5044508;28;20021;-82
2022/09/20 11:29:52;;;;;;;4.13;0.95;;;17.10;99.70;;;;;;5049120;28;20040;-81
2022/09/20 11:32:44;;;;;;;4.40;1.40;;;17.20;99.90;;;;;;5050261;28;20470;-81
2022/09/20 11:35:09;;;;;;;4.30;1.20;;;17.00;99.90;;;;;;5046144;28;20036;-83
2022/09/20 11:37:43;;;;;;;4.43;1.23;;;16.80;99.90;;;;;;5047475;28;20028;-83
2022/09/20 11:40:17;;;;;;;2.80;1.10;;;16.80;99.90;;;;;;5066864;28;20028;-83
2022/09/20 11:42:43;;;;;;;4.13;1.50;;;16.50;99.90;;;;;;5065617;28;20359;-80
2022/09/20 11:45:11;;;;;;;3.20;0.95;;;16.40;99.90;;;;;;5046089;28;20024;-84
2022/09/20 11:47:43;;;;;;;4.18;1.10;;;16.40;99.90;;;;;;5041797;28;20122;-80
2022/09/20 11:50:53;;;;;;;4.38;1.30;;;16.30;99.90;;;;;;5047896;28;20028;-82
2022/09/20 11:53:40;;;;;;;2.35;1.05;;;16.20;99.90;;;;;;5047326;28;20036;-82
2022/09/20 11:56:17;;;;;;;4.57;1.40;;;16.20;99.90;;;;;;5029975;28;20033;-80
2022/09/20 11:58:47;;;;;;;2.53;0.93;;;16.00;99.90;;;;;;5038691;28;20021;-82
2022/09/20 12:01:14;;;;;;;;;;;16.10;99.90;;;;;;5038097;28;20024;-81
2022/09/20 12:03:43;;;;;;;4.50;1.38;;;16.00;99.90;;;;;;5029089;28;19913;-81
2022/09/20 12:06:25;;;;;;;2.45;0.95;;;16.00;99.90;;;;;;5037997;28;20165;-83
2022/09/20 12:08:56;;;;;;;3.25;1.30;;;15.90;99.90;;;;;;5054352;28;20029;-82
2022/09/20 12:11:31;;;;;;;4.32;0.98;;;15.90;99.90;;;;;;5061650;28;20017;-84
2022/09/20 12:14:27;;;;;;;3.85;1.10;;;15.90;99.90;;;;;;5038625;28;20029;-80
2022/09/20 12:16:55;;;;;;;3.67;0.90;;;15.80;99.90;;;;;;5040455;28;20045;-82
2022/09/20 12:19:31;;;;;;;3.10;1.25;;;15.70;99.90;;;;;;5030980;28;20052;-82
2022/09/20 12:21:57;;;;;;;1.83;0.90;;;15.60;99.90;;;;;;5041284;28;20024;-83
2022/09/20 12:24:29;;;;;;;3.70;0.80;;;15.70;99.90;;;;;;5055932;28;20196;-84
2022/09/20 12:26:59;;;;;;;3.58;0.90;;;15.50;99.90;;;;;;5055884;28;20051;-81
2022/09/20 12:29:30;;;;;;;5.00;1.40;;;15.40;99.90;;;;;;5046165;28;20036;-78
2022/09/20 12:31:56;;;;;;;;;;;15.20;99.90;;;;;;5038030;28;20271;-82
2022/09/20 12:34:25;;;;;;;4.15;1.48;;;15.20;99.90;;;;;;5031488;28;19909;-81
2022/09/20 12:36:53;;;;;;;5.05;1.52;;;15.00;99.90;;;;;;5037852;28;20120;-81
2022/09/20 12:39:36;;;;;;;3.47;1.48;;;15.00;99.90;;;;;;5050986;28;20560;-82
2022/09/20 12:42:11;;;;;;;5.28;1.55;;;14.90;99.90;;;;;;5035621;28;20053;-81
2022/09/20 12:44:36;;;;;;;4.70;1.60;;;14.90;99.90;;;;;;5038241;28;20049;-85
2022/09/20 12:47:11;;;;;;;3.50;1.63;;;14.80;99.90;;;;;;5059869;28;20029;-84
2022/09/20 12:55:32;;;;;;;3.97;1.90;;;14.50;99.90;;;;;;5052971;28;20361;-84
2022/09/20 12:58:10;;;;;;;5.13;1.65;;;14.50;99.90;;;;;;5039002;28;20021;-83
2022/09/20 13:00:41;;;;;;;5.43;1.90;;;14.50;99.90;;;;;;5045840;28;20040;-83
2022/09/20 13:03:27;;;;;;;5.85;2.25;;;14.40;99.90;;;;;;5042866;28;20036;-83
2022/09/20 13:06:05;;;;;;;4.63;2.10;;;14.40;99.90;;;;;;5044754;28;20107;-84
2022/09/20 13:09:04;;;;;;;7.45;1.90;;;14.20;99.90;;;;;;5068386;28;20183;-83
2022/09/20 13:11:46;;;;;;;5.22;1.95;;;14.10;99.90;;;;;;5047563;28;20120;-83
2022/09/20 13:14:30;;;;;;;4.90;1.90;;;14.10;99.90;;;;;;5060174;28;20025;-83
2022/09/20 13:17:14;;;;;;;6.85;1.90;;;13.90;99.90;;;;;;5040713;28;20025;-80
2022/09/20 13:19:45;;;;;;;3.83;2.13;;;14.00;99.90;;;;;;5040240;28;20025;-79
2022/09/20 13:22:42;;;;;;;2.60;1.60;;;14.00;99.90;;;;;;5049569;28;20722;-85
2022/09/20 13:25:13;;;;;;;3.42;1.40;;;13.90;99.90;;;;;;5045253;28;20041;-84
2022/09/20 13:27:56;;;;;;;5.80;2.10;;;14.00;99.90;;;;;;5063163;28;20025;-79
2022/09/20 13:30:25;;;;;;;3.97;1.65;;;14.10;99.90;;;;;;5038294;28;20029;-81
2022/09/20 13:32:51;;;;;;;4.80;1.80;;;14.20;99.90;;;;;;5047401;28;20060;-80
2022/09/20 13:35:22;;;;;;;4.47;2.22;;;14.40;99.90;;;;;;5051932;28;20371;-84
2022/09/20 13:37:58;;;;;;;4.65;1.83;;;14.40;99.90;;;;;;5046649;28;20066;-80
2022/09/20 13:40:34;;;;;;;4.22;1.95;;;14.60;99.90;;;;;;5045128;28;20501;-81
2022/09/20 13:43:03;;;;;;;4.97;3.10;;;14.60;99.90;;;;;;5042074;28;20025;-80
2022/09/20 13:45:31;;;;;;;4.68;1.73;;;14.70;99.90;;;;;;5056587;28;20101;-84
2022/09/20 13:48:02;;;;;;;4.88;1.75;;;14.90;99.90;;;;;;5044416;28;20027;-80
2022/09/20 13:50:32;;;;;;;7.93;2.10;;;14.90;99.90;;;;;;5062434;28;20029;-82
2022/09/20 13:53:00;;;;;;;6.63;2.13;;;15.00;99.90;;;;;;5039612;28;20025;-82
2022/09/20 13:55:40;;;;;;;3.90;1.55;;;15.00;99.90;;;;;;5044659;28;20087;-80
2022/09/20 13:58:23;;;;;;;4.13;1.80;;;15.60;99.90;;;;;;5044269;28;20058;-82
2022/09/20 14:00:50;;;;;;;3.55;1.98;;;15.10;99.90;;;;;;5042546;28;20029;-82
2022/09/20 14:03:18;;;;;;;4.75;1.65;;;15.30;99.90;;;;;;5036804;28;20024;-84
2022/09/20 14:06:06;;;;;;;6.18;1.60;;;15.20;99.90;;;;;;5041589;28;20033;-80
2022/09/20 14:08:34;;;;;;;4.22;1.50;;;15.20;99.90;;;;;;5057352;28;20490;-83
2022/09/20 14:11:19;;;;;;;2.63;1.50;;;15.40;99.90;;;;;;5047355;28;20021;-82